sensor_id;sensor_type;location;lat;lon;timestamp;P1;durP1;ratioP1;P2;durP2;ratioP2
35114;SDS011;21292;52.416;13.046;2023-01-29T00:00:13;19.27;;;9.10;;
35114;SDS011;21292;52.416;13.046;2023-01-29T00:02:45;16.25;;;9.80;;
35114;SDS011;21292;52.416;13.046;2023-01-29T00:05:13;18.33;;;9.88;;
35114;SDS011;21292;52.416;13.046;2023-01-29T00:07:54;15.15;;;9.20;;
35114;SDS011;21292;52.416;13.046;2023-01-29T00:10:24;17.77;;;10.07;;
35114;SDS011;21292;52.416;13.046;2023-01-29T00:12:53;17.17;;;10.73;;
35114;SDS011;21292;52.416;13.046;2023-01-29T00:15:22;18.67;;;10.90;;
35114;SDS011;21292;52.416;13.046;2023-01-29T00:17:52;17.80;;;10.85;;
35114;SDS011;21292;52.416;13.046;2023-01-29T00:20:20;20.33;;;11.05;;
35114;SDS011;21292;52.416;13.046;2023-01-29T00:22:48;21.65;;;10.93;;
35114;SDS011;21292;52.416;13.046;2023-01-29T00:25:17;21.52;;;10.57;;
35114;SDS011;21292;52.416;13.046;2023-01-29T00:27:45;19.58;;;11.50;;
35114;SDS011;21292;52.416;13.046;2023-01-29T00:30:13;16.60;;;10.55;;
35114;SDS011;21292;52.416;13.046;2023-01-29T00:32:45;22.65;;;11.95;;
35114;SDS011;21292;52.416;13.046;2023-01-29T00:35:15;17.75;;;10.93;;
35114;SDS011;21292;52.416;13.046;2023-01-29T00:37:43;23.75;;;11.82;;
35114;SDS011;21292;52.416;13.046;2023-01-29T00:40:12;18.80;;;11.45;;
35114;SDS011;21292;52.416;13.046;2023-01-29T00:42:42;21.70;;;11.68;;
35114;SDS011;21292;52.416;13.046;2023-01-29T00:45:28;21.10;;;12.32;;
35114;SDS011;21292;52.416;13.046;2023-01-29T00:47:58;24.13;;;11.48;;
35114;SDS011;21292;52.416;13.046;2023-01-29T00:50:27;23.17;;;12.13;;
35114;SDS011;21292;52.416;13.046;2023-01-29T00:52:59;29.75;;;13.15;;
35114;SDS011;21292;52.416;13.046;2023-01-29T00:55:27;22.80;;;11.55;;
35114;SDS011;21292;52.416;13.046;2023-01-29T00:57:56;22.33;;;12.13;;
35114;SDS011;21292;52.416;13.046;2023-01-29T01:00:25;24.83;;;13.48;;
35114;SDS011;21292;52.416;13.046;2023-01-29T01:02:53;26.02;;;13.30;;
35114;SDS011;21292;52.416;13.046;2023-01-29T01:05:34;27.73;;;13.50;;
35114;SDS011;21292;52.416;13.046;2023-01-29T01:08:04;26.52;;;12.75;;
35114;SDS011;21292;52.416;13.046;2023-01-29T01:10:57;25.25;;;13.52;;
35114;SDS011;21292;52.416;13.046;2023-01-29T01:13:25;24.55;;;14.18;;
35114;SDS011;21292;52.416;13.046;2023-01-29T01:15:53;26.05;;;12.88;;
35114;SDS011;21292;52.416;13.046;2023-01-29T01:18:22;22.00;;;12.65;;
35114;SDS011;21292;52.416;13.046;2023-01-29T01:20:55;26.65;;;14.73;;
35114;SDS011;21292;52.416;13.046;2023-01-29T01:23:24;26.52;;;13.20;;
35114;SDS011;21292;52.416;13.046;2023-01-29T01:25:53;23.50;;;12.77;;
35114;SDS011;21292;52.416;13.046;2023-01-29T01:28:22;25.20;;;13.23;;
35114;SDS011;21292;52.416;13.046;2023-01-29T01:30:55;26.35;;;14.63;;
35114;SDS011;21292;52.416;13.046;2023-01-29T01:33:25;25.50;;;14.65;;
35114;SDS011;21292;52.416;13.046;2023-01-29T01:35:54;26.58;;;13.15;;
35114;SDS011;21292;52.416;13.046;2023-01-29T01:38:22;25.60;;;13.63;;
35114;SDS011;21292;52.416;13.046;2023-01-29T01:40:52;25.52;;;14.30;;
35114;SDS011;21292;52.416;13.046;2023-01-29T01:43:20;32.92;;;15.38;;
35114;SDS011;21292;52.416;13.046;2023-01-29T01:45:48;29.23;;;14.55;;
35114;SDS011;21292;52.416;13.046;2023-01-29T01:48:17;30.02;;;14.07;;
35114;SDS011;21292;52.416;13.046;2023-01-29T01:50:48;26.40;;;13.65;;
35114;SDS011;21292;52.416;13.046;2023-01-29T01:53:21;25.35;;;14.23;;
35114;SDS011;21292;52.416;13.046;2023-01-29T01:55:51;27.38;;;14.02;;
35114;SDS011;21292;52.416;13.046;2023-01-29T01:58:21;30.67;;;14.73;;
35114;SDS011;21292;52.416;13.046;2023-01-29T02:00:51;26.58;;;15.23;;
35114;SDS011;21292;52.416;13.046;2023-01-29T02:03:20;24.20;;;13.65;;
35114;SDS011;21292;52.416;13.046;2023-01-29T02:06:07;28.88;;;15.35;;
35114;SDS011;21292;52.416;13.046;2023-01-29T02:08:56;26.80;;;13.38;;
35114;SDS011;21292;52.416;13.046;2023-01-29T02:11:45;31.08;;;15.52;;
35114;SDS011;21292;52.416;13.046;2023-01-29T02:14:13;26.15;;;14.13;;
35114;SDS011;21292;52.416;13.046;2023-01-29T02:16:43;24.20;;;13.85;;
35114;SDS011;21292;52.416;13.046;2023-01-29T02:19:15;25.90;;;14.38;;
35114;SDS011;21292;52.416;13.046;2023-01-29T02:25:00;23.80;;;13.25;;
35114;SDS011;21292;52.416;13.046;2023-01-29T02:27:40;24.55;;;13.70;;
35114;SDS011;21292;52.416;13.046;2023-01-29T02:30:41;24.25;;;14.55;;
35114;SDS011;21292;52.416;13.046;2023-01-29T02:33:13;26.42;;;14.75;;
35114;SDS011;21292;52.416;13.046;2023-01-29T02:35:50;28.95;;;14.57;;
35114;SDS011;21292;52.416;13.046;2023-01-29T02:38:25;23.95;;;13.93;;
35114;SDS011;21292;52.416;13.046;2023-01-29T02:40:58;29.27;;;14.75;;
35114;SDS011;21292;52.416;13.046;2023-01-29T02:43:29;24.75;;;14.23;;
35114;SDS011;21292;52.416;13.046;2023-01-29T02:46:04;29.13;;;14.60;;
35114;SDS011;21292;52.416;13.046;2023-01-29T02:48:38;28.15;;;15.75;;
35114;SDS011;21292;52.416;13.046;2023-01-29T02:51:10;25.50;;;13.65;;
35114;SDS011;21292;52.416;13.046;2023-01-29T02:53:46;25.30;;;13.68;;
35114;SDS011;21292;52.416;13.046;2023-01-29T02:56:20;26.58;;;14.40;;
35114;SDS011;21292;52.416;13.046;2023-01-29T02:58:51;27.05;;;15.02;;
35114;SDS011;21292;52.416;13.046;2023-01-29T03:01:27;24.88;;;13.90;;
35114;SDS011;21292;52.416;13.046;2023-01-29T03:03:58;25.55;;;14.13;;
35114;SDS011;21292;52.416;13.046;2023-01-29T03:06:31;24.38;;;14.55;;
35114;SDS011;21292;52.416;13.046;2023-01-29T03:09:03;27.03;;;13.37;;
35114;SDS011;21292;52.416;13.046;2023-01-29T03:11:33;27.77;;;15.13;;
35114;SDS011;21292;52.416;13.046;2023-01-29T03:14:07;27.33;;;14.82;;
35114;SDS011;21292;52.416;13.046;2023-01-29T03:16:41;31.92;;;15.88;;
35114;SDS011;21292;52.416;13.046;2023-01-29T03:19:14;30.55;;;14.75;;
35114;SDS011;21292;52.416;13.046;2023-01-29T03:21:47;30.73;;;16.13;;
35114;SDS011;21292;52.416;13.046;2023-01-29T03:24:17;25.52;;;15.30;;
35114;SDS011;21292;52.416;13.046;2023-01-29T03:27:06;29.13;;;15.38;;
35114;SDS011;21292;52.416;13.046;2023-01-29T03:29:54;26.83;;;14.63;;
35114;SDS011;21292;52.416;13.046;2023-01-29T03:32:42;28.75;;;15.52;;
35114;SDS011;21292;52.416;13.046;2023-01-29T03:35:12;32.38;;;14.88;;
35114;SDS011;21292;52.416;13.046;2023-01-29T03:37:46;35.97;;;15.82;;
35114;SDS011;21292;52.416;13.046;2023-01-29T03:40:15;31.60;;;15.75;;
35114;SDS011;21292;52.416;13.046;2023-01-29T03:42:48;30.73;;;16.38;;
35114;SDS011;21292;52.416;13.046;2023-01-29T03:45:22;30.55;;;17.38;;
35114;SDS011;21292;52.416;13.046;2023-01-29T03:47:57;30.58;;;16.10;;
35114;SDS011;21292;52.416;13.046;2023-01-29T03:50:36;26.38;;;14.43;;
35114;SDS011;21292;52.416;13.046;2023-01-29T03:53:08;31.40;;;16.10;;
35114;SDS011;21292;52.416;13.046;2023-01-29T03:55:47;27.08;;;14.40;;
35114;SDS011;21292;52.416;13.046;2023-01-29T03:58:22;32.45;;;15.48;;
35114;SDS011;21292;52.416;13.046;2023-01-29T04:00:53;29.42;;;15.07;;
35114;SDS011;21292;52.416;13.046;2023-01-29T04:03:25;31.73;;;16.48;;
35114;SDS011;21292;52.416;13.046;2023-01-29T04:06:01;28.48;;;15.57;;
35114;SDS011;21292;52.416;13.046;2023-01-29T04:08:36;29.83;;;16.88;;
35114;SDS011;21292;52.416;13.046;2023-01-29T04:11:10;29.80;;;16.85;;
35114;SDS011;21292;52.416;13.046;2023-01-29T04:13:41;30.95;;;15.35;;
35114;SDS011;21292;52.416;13.046;2023-01-29T04:16:11;32.05;;;16.05;;
35114;SDS011;21292;52.416;13.046;2023-01-29T04:18:45;26.15;;;14.95;;
35114;SDS011;21292;52.416;13.046;2023-01-29T04:21:14;32.10;;;15.07;;
35114;SDS011;21292;52.416;13.046;2023-01-29T04:23:42;33.03;;;17.05;;
35114;SDS011;21292;52.416;13.046;2023-01-29T04:29:07;33.58;;;16.75;;
35114;SDS011;21292;52.416;13.046;2023-01-29T04:31:44;30.95;;;15.80;;
35114;SDS011;21292;52.416;13.046;2023-01-29T04:34:20;33.88;;;18.02;;
35114;SDS011;21292;52.416;13.046;2023-01-29T04:36:54;30.65;;;16.30;;
35114;SDS011;21292;52.416;13.046;2023-01-29T04:39:30;34.72;;;17.17;;
35114;SDS011;21292;52.416;13.046;2023-01-29T04:42:05;35.30;;;17.50;;
35114;SDS011;21292;52.416;13.046;2023-01-29T04:44:39;32.95;;;17.48;;
35114;SDS011;21292;52.416;13.046;2023-01-29T04:47:14;31.20;;;16.88;;
35114;SDS011;21292;52.416;13.046;2023-01-29T04:49:48;37.58;;;18.75;;
35114;SDS011;21292;52.416;13.046;2023-01-29T04:52:23;35.88;;;18.45;;
35114;SDS011;21292;52.416;13.046;2023-01-29T04:55:03;31.30;;;16.60;;
35114;SDS011;21292;52.416;13.046;2023-01-29T04:57:35;34.45;;;17.30;;
35114;SDS011;21292;52.416;13.046;2023-01-29T05:00:10;35.13;;;17.33;;
35114;SDS011;21292;52.416;13.046;2023-01-29T05:02:42;36.70;;;18.52;;
35114;SDS011;21292;52.416;13.046;2023-01-29T05:05:13;36.13;;;17.95;;
35114;SDS011;21292;52.416;13.046;2023-01-29T05:07:43;36.88;;;18.58;;
35114;SDS011;21292;52.416;13.046;2023-01-29T05:10:13;39.05;;;18.38;;
35114;SDS011;21292;52.416;13.046;2023-01-29T05:12:44;33.97;;;17.83;;
35114;SDS011;21292;52.416;13.046;2023-01-29T05:15:19;37.25;;;19.05;;
35114;SDS011;21292;52.416;13.046;2023-01-29T05:17:50;39.00;;;18.58;;
35114;SDS011;21292;52.416;13.046;2023-01-29T05:20:23;37.45;;;18.10;;
35114;SDS011;21292;52.416;13.046;2023-01-29T05:22:54;39.63;;;19.10;;
35114;SDS011;21292;52.416;13.046;2023-01-29T05:25:23;42.42;;;19.17;;
35114;SDS011;21292;52.416;13.046;2023-01-29T05:27:51;44.33;;;20.67;;
35114;SDS011;21292;52.416;13.046;2023-01-29T05:30:33;42.35;;;19.05;;
35114;SDS011;21292;52.416;13.046;2023-01-29T05:33:02;45.35;;;21.30;;
35114;SDS011;21292;52.416;13.046;2023-01-29T05:35:33;41.05;;;20.90;;
35114;SDS011;21292;52.416;13.046;2023-01-29T05:38:02;42.85;;;20.92;;
35114;SDS011;21292;52.416;13.046;2023-01-29T05:40:30;42.50;;;22.10;;
35114;SDS011;21292;52.416;13.046;2023-01-29T05:42:58;42.63;;;21.52;;
35114;SDS011;21292;52.416;13.046;2023-01-29T05:45:26;45.00;;;22.30;;
35114;SDS011;21292;52.416;13.046;2023-01-29T05:47:56;41.55;;;20.70;;
35114;SDS011;21292;52.416;13.046;2023-01-29T05:50:25;47.83;;;21.67;;
35114;SDS011;21292;52.416;13.046;2023-01-29T05:52:59;41.80;;;20.30;;
35114;SDS011;21292;52.416;13.046;2023-01-29T05:55:28;45.63;;;20.85;;
35114;SDS011;21292;52.416;13.046;2023-01-29T05:57:56;47.65;;;21.63;;
35114;SDS011;21292;52.416;13.046;2023-01-29T06:00:25;43.85;;;22.42;;
35114;SDS011;21292;52.416;13.046;2023-01-29T06:02:53;46.10;;;22.75;;
35114;SDS011;21292;52.416;13.046;2023-01-29T06:05:22;43.22;;;21.50;;
35114;SDS011;21292;52.416;13.046;2023-01-29T06:07:51;43.42;;;21.17;;
35114;SDS011;21292;52.416;13.046;2023-01-29T06:10:22;45.83;;;21.90;;
35114;SDS011;21292;52.416;13.046;2023-01-29T06:12:50;44.80;;;21.35;;
35114;SDS011;21292;52.416;13.046;2023-01-29T06:15:19;43.97;;;22.33;;
35114;SDS011;21292;52.416;13.046;2023-01-29T06:17:48;48.45;;;22.25;;
35114;SDS011;21292;52.416;13.046;2023-01-29T06:20:18;49.63;;;23.33;;
35114;SDS011;21292;52.416;13.046;2023-01-29T06:22:46;45.75;;;22.05;;
35114;SDS011;21292;52.416;13.046;2023-01-29T06:25:14;52.08;;;21.50;;
35114;SDS011;21292;52.416;13.046;2023-01-29T06:27:44;51.58;;;22.27;;
35114;SDS011;21292;52.416;13.046;2023-01-29T06:30:13;56.92;;;23.10;;
35114;SDS011;21292;52.416;13.046;2023-01-29T06:32:42;50.00;;;22.98;;
35114;SDS011;21292;52.416;13.046;2023-01-29T06:35:11;49.63;;;22.73;;
35114;SDS011;21292;52.416;13.046;2023-01-29T06:37:39;49.67;;;21.80;;
35114;SDS011;21292;52.416;13.046;2023-01-29T06:40:08;49.45;;;23.27;;
35114;SDS011;21292;52.416;13.046;2023-01-29T06:42:37;51.00;;;22.88;;
35114;SDS011;21292;52.416;13.046;2023-01-29T06:45:09;47.65;;;22.10;;
35114;SDS011;21292;52.416;13.046;2023-01-29T06:47:38;48.83;;;22.73;;
35114;SDS011;21292;52.416;13.046;2023-01-29T06:50:07;49.92;;;21.95;;
35114;SDS011;21292;52.416;13.046;2023-01-29T06:52:36;50.95;;;23.75;;
35114;SDS011;21292;52.416;13.046;2023-01-29T06:55:05;58.38;;;24.25;;
35114;SDS011;21292;52.416;13.046;2023-01-29T06:57:33;50.10;;;23.33;;
35114;SDS011;21292;52.416;13.046;2023-01-29T07:00:01;52.42;;;23.60;;
35114;SDS011;21292;52.416;13.046;2023-01-29T07:02:33;48.75;;;23.50;;
35114;SDS011;21292;52.416;13.046;2023-01-29T07:05:01;63.13;;;26.42;;
35114;SDS011;21292;52.416;13.046;2023-01-29T07:07:31;51.97;;;23.83;;
35114;SDS011;21292;52.416;13.046;2023-01-29T07:10:02;52.08;;;24.88;;
35114;SDS011;21292;52.416;13.046;2023-01-29T07:12:31;58.38;;;25.10;;
35114;SDS011;21292;52.416;13.046;2023-01-29T07:14:59;53.50;;;25.02;;
35114;SDS011;21292;52.416;13.046;2023-01-29T07:17:27;60.90;;;25.63;;
35114;SDS011;21292;52.416;13.046;2023-01-29T07:19:56;54.35;;;23.52;;
35114;SDS011;21292;52.416;13.046;2023-01-29T07:22:24;55.35;;;24.77;;
35114;SDS011;21292;52.416;13.046;2023-01-29T07:24:52;58.00;;;25.98;;
35114;SDS011;21292;52.416;13.046;2023-01-29T07:27:21;53.33;;;25.05;;
35114;SDS011;21292;52.416;13.046;2023-01-29T07:29:49;57.70;;;25.88;;
35114;SDS011;21292;52.416;13.046;2023-01-29T07:32:18;50.75;;;23.17;;
35114;SDS011;21292;52.416;13.046;2023-01-29T07:34:46;55.80;;;23.55;;
35114;SDS011;21292;52.416;13.046;2023-01-29T07:37:16;60.28;;;25.48;;
35114;SDS011;21292;52.416;13.046;2023-01-29T07:39:44;57.10;;;24.75;;
35114;SDS011;21292;52.416;13.046;2023-01-29T07:42:13;56.97;;;23.50;;
35114;SDS011;21292;52.416;13.046;2023-01-29T07:44:42;60.28;;;25.48;;
35114;SDS011;21292;52.416;13.046;2023-01-29T07:47:11;47.38;;;23.00;;
35114;SDS011;21292;52.416;13.046;2023-01-29T07:49:42;55.10;;;22.70;;
35114;SDS011;21292;52.416;13.046;2023-01-29T07:52:10;57.67;;;25.10;;
35114;SDS011;21292;52.416;13.046;2023-01-29T07:54:40;55.22;;;24.13;;
35114;SDS011;21292;52.416;13.046;2023-01-29T07:57:10;62.35;;;26.40;;
35114;SDS011;21292;52.416;13.046;2023-01-29T07:59:40;52.45;;;23.77;;
35114;SDS011;21292;52.416;13.046;2023-01-29T08:02:10;59.13;;;23.58;;
35114;SDS011;21292;52.416;13.046;2023-01-29T08:04:38;58.35;;;24.25;;
35114;SDS011;21292;52.416;13.046;2023-01-29T08:07:07;55.25;;;24.55;;
35114;SDS011;21292;52.416;13.046;2023-01-29T08:09:35;56.65;;;24.70;;
35114;SDS011;21292;52.416;13.046;2023-01-29T08:12:06;64.00;;;25.98;;
35114;SDS011;21292;52.416;13.046;2023-01-29T08:14:34;48.75;;;23.55;;
35114;SDS011;21292;52.416;13.046;2023-01-29T08:17:03;53.05;;;24.02;;
35114;SDS011;21292;52.416;13.046;2023-01-29T08:19:31;53.25;;;23.27;;
35114;SDS011;21292;52.416;13.046;2023-01-29T08:21:59;55.05;;;24.13;;
35114;SDS011;21292;52.416;13.046;2023-01-29T08:24:29;47.55;;;23.15;;
35114;SDS011;21292;52.416;13.046;2023-01-29T08:27:19;50.58;;;24.10;;
35114;SDS011;21292;52.416;13.046;2023-01-29T08:29:47;56.60;;;23.00;;
35114;SDS011;21292;52.416;13.046;2023-01-29T08:32:15;51.90;;;22.90;;
35114;SDS011;21292;52.416;13.046;2023-01-29T08:34:43;52.67;;;24.13;;
35114;SDS011;21292;52.416;13.046;2023-01-29T08:37:11;47.95;;;22.65;;
35114;SDS011;21292;52.416;13.046;2023-01-29T08:39:39;51.20;;;22.35;;
35114;SDS011;21292;52.416;13.046;2023-01-29T08:42:12;62.40;;;24.60;;
35114;SDS011;21292;52.416;13.046;2023-01-29T08:44:42;49.72;;;22.67;;
35114;SDS011;21292;52.416;13.046;2023-01-29T08:47:10;48.65;;;21.27;;
35114;SDS011;21292;52.416;13.046;2023-01-29T08:49:38;52.90;;;22.80;;
35114;SDS011;21292;52.416;13.046;2023-01-29T08:52:06;46.33;;;21.33;;
35114;SDS011;21292;52.416;13.046;2023-01-29T08:54:34;56.15;;;21.83;;
35114;SDS011;21292;52.416;13.046;2023-01-29T08:57:04;45.08;;;22.42;;
35114;SDS011;21292;52.416;13.046;2023-01-29T08:59:32;47.95;;;23.23;;
35114;SDS011;21292;52.416;13.046;2023-01-29T09:02:02;42.03;;;20.23;;
35114;SDS011;21292;52.416;13.046;2023-01-29T09:04:30;48.80;;;21.27;;
35114;SDS011;21292;52.416;13.046;2023-01-29T09:06:58;41.13;;;19.80;;
35114;SDS011;21292;52.416;13.046;2023-01-29T09:09:30;41.00;;;19.55;;
35114;SDS011;21292;52.416;13.046;2023-01-29T09:11:58;45.15;;;18.98;;
35114;SDS011;21292;52.416;13.046;2023-01-29T09:14:26;40.15;;;19.15;;
35114;SDS011;21292;52.416;13.046;2023-01-29T09:16:55;38.15;;;19.10;;
35114;SDS011;21292;52.416;13.046;2023-01-29T09:19:25;39.33;;;19.77;;
35114;SDS011;21292;52.416;13.046;2023-01-29T09:21:54;36.75;;;18.17;;
35114;SDS011;21292;52.416;13.046;2023-01-29T09:24:22;37.35;;;18.88;;
35114;SDS011;21292;52.416;13.046;2023-01-29T09:26:50;37.05;;;18.17;;
35114;SDS011;21292;52.416;13.046;2023-01-29T09:29:18;39.15;;;18.75;;
35114;SDS011;21292;52.416;13.046;2023-01-29T09:31:47;33.05;;;16.98;;
35114;SDS011;21292;52.416;13.046;2023-01-29T09:34:15;34.03;;;17.35;;
35114;SDS011;21292;52.416;13.046;2023-01-29T09:36:44;34.83;;;17.15;;
35114;SDS011;21292;52.416;13.046;2023-01-29T09:39:13;34.97;;;18.27;;
35114;SDS011;21292;52.416;13.046;2023-01-29T09:41:43;30.63;;;15.90;;
35114;SDS011;21292;52.416;13.046;2023-01-29T09:44:18;32.10;;;16.38;;
35114;SDS011;21292;52.416;13.046;2023-01-29T09:46:51;34.15;;;16.25;;
35114;SDS011;21292;52.416;13.046;2023-01-29T09:49:20;36.85;;;16.25;;
35114;SDS011;21292;52.416;13.046;2023-01-29T09:54:24;36.10;;;17.38;;
35114;SDS011;21292;52.416;13.046;2023-01-29T09:56:56;30.60;;;16.02;;
35114;SDS011;21292;52.416;13.046;2023-01-29T09:59:25;31.67;;;15.07;;
35114;SDS011;21292;52.416;13.046;2023-01-29T10:01:58;20.90;;;11.80;;
35114;SDS011;21292;52.416;13.046;2023-01-29T10:04:37;25.80;;;12.65;;
35114;SDS011;21292;52.416;13.046;2023-01-29T10:07:20;29.05;;;13.13;;
35114;SDS011;21292;52.416;13.046;2023-01-29T10:10:02;24.02;;;12.98;;
35114;SDS011;21292;52.416;13.046;2023-01-29T10:12:52;26.75;;;14.48;;
35114;SDS011;21292;52.416;13.046;2023-01-29T10:15:35;22.38;;;12.18;;
35114;SDS011;21292;52.416;13.046;2023-01-29T10:18:15;26.35;;;13.18;;
35114;SDS011;21292;52.416;13.046;2023-01-29T10:20:59;28.30;;;13.90;;
35114;SDS011;21292;52.416;13.046;2023-01-29T10:23:35;23.17;;;12.38;;
35114;SDS011;21292;52.416;13.046;2023-01-29T10:26:05;22.25;;;12.38;;
35114;SDS011;21292;52.416;13.046;2023-01-29T10:28:38;22.65;;;13.18;;
35114;SDS011;21292;52.416;13.046;2023-01-29T10:31:14;23.45;;;13.10;;
35114;SDS011;21292;52.416;13.046;2023-01-29T10:33:47;25.05;;;12.82;;
35114;SDS011;21292;52.416;13.046;2023-01-29T10:36:31;24.13;;;12.30;;
35114;SDS011;21292;52.416;13.046;2023-01-29T10:39:02;22.65;;;13.43;;
35114;SDS011;21292;52.416;13.046;2023-01-29T10:41:43;23.95;;;12.98;;
35114;SDS011;21292;52.416;13.046;2023-01-29T10:44:22;21.70;;;12.98;;
35114;SDS011;21292;52.416;13.046;2023-01-29T10:47:03;25.88;;;12.77;;
35114;SDS011;21292;52.416;13.046;2023-01-29T10:49:40;20.70;;;12.52;;
35114;SDS011;21292;52.416;13.046;2023-01-29T10:52:24;25.30;;;12.63;;
35114;SDS011;21292;52.416;13.046;2023-01-29T10:55:03;20.92;;;11.90;;
35114;SDS011;21292;52.416;13.046;2023-01-29T10:57:43;21.50;;;12.52;;
35114;SDS011;21292;52.416;13.046;2023-01-29T11:00:19;24.50;;;12.68;;
35114;SDS011;21292;52.416;13.046;2023-01-29T11:02:50;25.92;;;14.15;;
35114;SDS011;21292;52.416;13.046;2023-01-29T11:05:20;22.23;;;12.43;;
35114;SDS011;21292;52.416;13.046;2023-01-29T11:07:59;22.02;;;12.77;;
35114;SDS011;21292;52.416;13.046;2023-01-29T11:10:35;21.83;;;12.98;;
35114;SDS011;21292;52.416;13.046;2023-01-29T11:13:07;24.15;;;13.10;;
35114;SDS011;21292;52.416;13.046;2023-01-29T11:15:39;23.45;;;12.27;;
35114;SDS011;21292;52.416;13.046;2023-01-29T11:18:09;22.67;;;13.00;;
35114;SDS011;21292;52.416;13.046;2023-01-29T11:20:42;23.85;;;12.65;;
35114;SDS011;21292;52.416;13.046;2023-01-29T11:23:24;23.13;;;12.82;;
35114;SDS011;21292;52.416;13.046;2023-01-29T11:25:55;25.85;;;13.15;;
35114;SDS011;21292;52.416;13.046;2023-01-29T11:28:34;25.92;;;12.88;;
35114;SDS011;21292;52.416;13.046;2023-01-29T11:31:13;21.50;;;12.73;;
35114;SDS011;21292;52.416;13.046;2023-01-29T11:33:42;23.63;;;12.88;;
35114;SDS011;21292;52.416;13.046;2023-01-29T11:36:19;20.85;;;11.95;;
35114;SDS011;21292;52.416;13.046;2023-01-29T11:39:00;23.83;;;12.77;;
35114;SDS011;21292;52.416;13.046;2023-01-29T11:41:42;24.17;;;12.43;;
35114;SDS011;21292;52.416;13.046;2023-01-29T11:44:17;27.13;;;14.50;;
35114;SDS011;21292;52.416;13.046;2023-01-29T11:46:46;20.63;;;12.20;;
35114;SDS011;21292;52.416;13.046;2023-01-29T11:49:20;25.88;;;13.13;;
35114;SDS011;21292;52.416;13.046;2023-01-29T11:51:51;23.85;;;13.70;;
35114;SDS011;21292;52.416;13.046;2023-01-29T11:54:20;24.70;;;13.52;;
35114;SDS011;21292;52.416;13.046;2023-01-29T11:56:54;27.30;;;12.57;;
35114;SDS011;21292;52.416;13.046;2023-01-29T11:59:29;27.70;;;13.55;;
35114;SDS011;21292;52.416;13.046;2023-01-29T12:02:13;23.75;;;12.68;;
35114;SDS011;21292;52.416;13.046;2023-01-29T12:04:50;24.25;;;12.40;;
35114;SDS011;21292;52.416;13.046;2023-01-29T12:07:18;25.13;;;13.73;;
35114;SDS011;21292;52.416;13.046;2023-01-29T12:09:47;26.70;;;12.95;;
35114;SDS011;21292;52.416;13.046;2023-01-29T12:12:33;28.08;;;12.88;;
35114;SDS011;21292;52.416;13.046;2023-01-29T12:15:15;27.63;;;14.00;;
35114;SDS011;21292;52.416;13.046;2023-01-29T12:17:52;22.63;;;12.80;;
35114;SDS011;21292;52.416;13.046;2023-01-29T12:20:29;26.08;;;13.32;;
35114;SDS011;21292;52.416;13.046;2023-01-29T12:23:02;27.63;;;14.40;;
35114;SDS011;21292;52.416;13.046;2023-01-29T12:25:40;25.17;;;13.70;;
35114;SDS011;21292;52.416;13.046;2023-01-29T12:28:25;27.08;;;13.35;;
35114;SDS011;21292;52.416;13.046;2023-01-29T12:31:10;24.95;;;13.68;;
35114;SDS011;21292;52.416;13.046;2023-01-29T12:33:48;24.95;;;13.23;;
35114;SDS011;21292;52.416;13.046;2023-01-29T12:36:20;27.20;;;15.25;;
35114;SDS011;21292;52.416;13.046;2023-01-29T12:38:52;25.55;;;12.48;;
35114;SDS011;21292;52.416;13.046;2023-01-29T12:41:29;25.48;;;14.05;;
35114;SDS011;21292;52.416;13.046;2023-01-29T12:44:02;26.00;;;13.77;;
35114;SDS011;21292;52.416;13.046;2023-01-29T12:46:36;29.15;;;13.52;;
35114;SDS011;21292;52.416;13.046;2023-01-29T12:49:09;27.13;;;13.98;;
35114;SDS011;21292;52.416;13.046;2023-01-29T12:51:42;28.95;;;15.07;;
35114;SDS011;21292;52.416;13.046;2023-01-29T12:54:17;27.77;;;13.85;;
35114;SDS011;21292;52.416;13.046;2023-01-29T12:56:48;27.50;;;13.77;;
35114;SDS011;21292;52.416;13.046;2023-01-29T12:59:23;24.63;;;13.65;;
35114;SDS011;21292;52.416;13.046;2023-01-29T13:01:55;28.17;;;13.40;;
35114;SDS011;21292;52.416;13.046;2023-01-29T13:04:29;24.93;;;12.80;;
35114;SDS011;21292;52.416;13.046;2023-01-29T13:07:08;28.40;;;12.65;;
35114;SDS011;21292;52.416;13.046;2023-01-29T13:09:40;23.38;;;12.23;;
35114;SDS011;21292;52.416;13.046;2023-01-29T13:12:11;28.40;;;14.15;;
35114;SDS011;21292;52.416;13.046;2023-01-29T13:14:44;25.80;;;13.50;;
35114;SDS011;21292;52.416;13.046;2023-01-29T13:17:17;29.15;;;14.30;;
35114;SDS011;21292;52.416;13.046;2023-01-29T13:19:50;25.58;;;14.63;;
35114;SDS011;21292;52.416;13.046;2023-01-29T13:22:21;28.23;;;14.55;;
35114;SDS011;21292;52.416;13.046;2023-01-29T13:24:51;24.67;;;13.88;;
35114;SDS011;21292;52.416;13.046;2023-01-29T13:27:31;27.02;;;13.98;;
35114;SDS011;21292;52.416;13.046;2023-01-29T13:30:03;27.35;;;13.93;;
35114;SDS011;21292;52.416;13.046;2023-01-29T13:32:32;28.57;;;15.80;;
35114;SDS011;21292;52.416;13.046;2023-01-29T13:35:04;30.40;;;15.43;;
35114;SDS011;21292;52.416;13.046;2023-01-29T13:37:40;30.77;;;16.30;;
35114;SDS011;21292;52.416;13.046;2023-01-29T13:40:17;32.30;;;16.48;;
35114;SDS011;21292;52.416;13.046;2023-01-29T13:42:46;33.08;;;16.08;;
35114;SDS011;21292;52.416;13.046;2023-01-29T13:45:18;32.92;;;16.70;;
35114;SDS011;21292;52.416;13.046;2023-01-29T13:47:48;36.65;;;16.40;;
35114;SDS011;21292;52.416;13.046;2023-01-29T13:50:18;37.75;;;16.83;;
35114;SDS011;21292;52.416;13.046;2023-01-29T13:52:51;38.25;;;18.13;;
35114;SDS011;21292;52.416;13.046;2023-01-29T13:55:22;39.15;;;18.98;;
35114;SDS011;21292;52.416;13.046;2023-01-29T13:57:57;38.63;;;18.40;;
35114;SDS011;21292;52.416;13.046;2023-01-29T14:03:32;39.30;;;18.40;;
35114;SDS011;21292;52.416;13.046;2023-01-29T14:06:44;38.20;;;18.85;;
35114;SDS011;21292;52.416;13.046;2023-01-29T14:09:29;40.78;;;19.60;;
35114;SDS011;21292;52.416;13.046;2023-01-29T14:15:14;43.25;;;20.58;;
35114;SDS011;21292;52.416;13.046;2023-01-29T14:17:55;42.53;;;20.25;;
35114;SDS011;21292;52.416;13.046;2023-01-29T14:20:41;42.85;;;21.90;;
35114;SDS011;21292;52.416;13.046;2023-01-29T14:23:22;41.40;;;20.48;;
35114;SDS011;21292;52.416;13.046;2023-01-29T14:26:19;47.88;;;20.38;;
35114;SDS011;21292;52.416;13.046;2023-01-29T14:28:51;42.47;;;22.42;;
35114;SDS011;21292;52.416;13.046;2023-01-29T14:31:36;44.15;;;20.45;;
35114;SDS011;21292;52.416;13.046;2023-01-29T14:34:15;41.88;;;18.95;;
35114;SDS011;21292;52.416;13.046;2023-01-29T14:36:47;47.63;;;20.85;;
35114;SDS011;21292;52.416;13.046;2023-01-29T14:39:22;47.47;;;22.25;;
35114;SDS011;21292;52.416;13.046;2023-01-29T14:41:57;48.25;;;21.77;;
35114;SDS011;21292;52.416;13.046;2023-01-29T14:44:45;44.85;;;21.15;;
35114;SDS011;21292;52.416;13.046;2023-01-29T14:47:16;40.55;;;20.23;;
35114;SDS011;21292;52.416;13.046;2023-01-29T14:49:51;44.33;;;21.42;;
35114;SDS011;21292;52.416;13.046;2023-01-29T14:52:20;48.40;;;21.90;;
35114;SDS011;21292;52.416;13.046;2023-01-29T14:54:53;43.42;;;21.10;;